sensor_id;sensor_type;location;lat;lon;timestamp;pressure;altitude;pressure_sealevel;temperature
8227;BMP180;4154;48.810;9.012;2023-03-29T00:01:02;97435.00;;;6.20
8227;BMP180;4154;48.810;9.012;2023-03-29T00:03:31;97428.00;;;6.10
8227;BMP180;4154;48.810;9.012;2023-03-29T00:05:59;97421.00;;;6.10
8227;BMP180;4154;48.810;9.012;2023-03-29T00:08:31;97428.00;;;6.10
8227;BMP180;4154;48.810;9.012;2023-03-29T00:10:59;97420.00;;;6.00
8227;BMP180;4154;48.810;9.012;2023-03-29T00:13:26;97422.00;;;6.10
8227;BMP180;4154;48.810;9.012;2023-03-29T00:15:53;97402.00;;;6.10
8227;BMP180;4154;48.810;9.012;2023-03-29T00:18:19;97404.00;;;6.10
8227;BMP180;4154;48.810;9.012;2023-03-29T00:20:45;97401.00;;;6.10
8227;BMP180;4154;48.810;9.012;2023-03-29T00:23:11;97403.00;;;6.10
8227;BMP180;4154;48.810;9.012;2023-03-29T00:25:36;97392.00;;;6.10
8227;BMP180;4154;48.810;9.012;2023-03-29T00:28:02;97384.00;;;6.10
8227;BMP180;4154;48.810;9.012;2023-03-29T00:30:28;97382.00;;;6.10
8227;BMP180;4154;48.810;9.012;2023-03-29T00:32:54;97400.00;;;6.10
8227;BMP180;4154;48.810;9.012;2023-03-29T00:35:20;97385.00;;;6.10
8227;BMP180;4154;48.810;9.012;2023-03-29T00:37:45;97387.00;;;6.20
8227;BMP180;4154;48.810;9.012;2023-03-29T00:40:15;97376.00;;;6.10
8227;BMP180;4154;48.810;9.012;2023-03-29T00:42:43;97380.00;;;6.10
8227;BMP180;4154;48.810;9.012;2023-03-29T00:45:24;97388.00;;;6.10
8227;BMP180;4154;48.810;9.012;2023-03-29T00:47:57;97371.00;;;6.10
8227;BMP180;4154;48.810;9.012;2023-03-29T00:50:42;97373.00;;;6.00
8227;BMP180;4154;48.810;9.012;2023-03-29T00:53:20;97376.00;;;6.00
8227;BMP180;4154;48.810;9.012;2023-03-29T00:56:05;97372.00;;;6.10
8227;BMP180;4154;48.810;9.012;2023-03-29T00:58:53;97361.00;;;6.00
8227;BMP180;4154;48.810;9.012;2023-03-29T01:04:33;97357.00;;;6.10
8227;BMP180;4154;48.810;9.012;2023-03-29T01:07:12;97350.00;;;6.10
8227;BMP180;4154;48.810;9.012;2023-03-29T01:09:47;97341.00;;;6.10
8227;BMP180;4154;48.810;9.012;2023-03-29T01:12:20;97329.00;;;6.10
8227;BMP180;4154;48.810;9.012;2023-03-29T01:14:56;97341.00;;;6.10
8227;BMP180;4154;48.810;9.012;2023-03-29T01:17:24;97337.00;;;6.10
8227;BMP180;4154;48.810;9.012;2023-03-29T01:19:58;97346.00;;;6.00
8227;BMP180;4154;48.810;9.012;2023-03-29T01:23:27;97334.00;;;6.00
8227;BMP180;4154;48.810;9.012;2023-03-29T01:26:17;97328.00;;;5.90
8227;BMP180;4154;48.810;9.012;2023-03-29T01:31:55;97319.00;;;6.00
8227;BMP180;4154;48.810;9.012;2023-03-29T01:34:54;97312.00;;;5.90
8227;BMP180;4154;48.810;9.012;2023-03-29T01:37:32;97305.00;;;6.00
8227;BMP180;4154;48.810;9.012;2023-03-29T01:40:00;97304.00;;;6.00
8227;BMP180;4154;48.810;9.012;2023-03-29T01:42:42;97295.00;;;6.00
8227;BMP180;4154;48.810;9.012;2023-03-29T01:45:19;97288.00;;;6.00
8227;BMP180;4154;48.810;9.012;2023-03-29T01:48:04;97293.00;;;6.00
8227;BMP180;4154;48.810;9.012;2023-03-29T01:50:43;97275.00;;;6.00
8227;BMP180;4154;48.810;9.012;2023-03-29T01:53:43;97276.00;;;6.00
8227;BMP180;4154;48.810;9.012;2023-03-29T01:56:15;97261.00;;;6.00
8227;BMP180;4154;48.810;9.012;2023-03-29T01:58:48;97264.00;;;6.00
8227;BMP180;4154;48.810;9.012;2023-03-29T02:01:20;97253.00;;;5.90
8227;BMP180;4154;48.810;9.012;2023-03-29T02:03:54;97256.00;;;6.00
8227;BMP180;4154;48.810;9.012;2023-03-29T02:06:24;97243.00;;;5.90
8227;BMP180;4154;48.810;9.012;2023-03-29T02:08:52;97247.00;;;5.90
8227;BMP180;4154;48.810;9.012;2023-03-29T02:11:22;97231.00;;;5.90
8227;BMP180;4154;48.810;9.012;2023-03-29T02:13:48;97236.00;;;5.80
8227;BMP180;4154;48.810;9.012;2023-03-29T02:16:14;97233.00;;;5.80
8227;BMP180;4154;48.810;9.012;2023-03-29T02:18:45;97245.00;;;5.90
8227;BMP180;4154;48.810;9.012;2023-03-29T02:24:17;97231.00;;;5.70
8227;BMP180;4154;48.810;9.012;2023-03-29T02:26:44;97237.00;;;5.70
8227;BMP180;4154;48.810;9.012;2023-03-29T02:29:09;97231.00;;;5.80
8227;BMP180;4154;48.810;9.012;2023-03-29T02:32:16;97226.00;;;5.70
8227;BMP180;4154;48.810;9.012;2023-03-29T02:35:15;97232.00;;;5.80
8227;BMP180;4154;48.810;9.012;2023-03-29T02:37:46;97224.00;;;5.70
8227;BMP180;4154;48.810;9.012;2023-03-29T02:40:14;97214.00;;;5.60
8227;BMP180;4154;48.810;9.012;2023-03-29T02:42:43;97206.00;;;5.60
8227;BMP180;4154;48.810;9.012;2023-03-29T02:45:14;97201.00;;;5.50
8227;BMP180;4154;48.810;9.012;2023-03-29T02:47:47;97191.00;;;5.50
8227;BMP180;4154;48.810;9.012;2023-03-29T02:50:16;97186.00;;;5.40
8227;BMP180;4154;48.810;9.012;2023-03-29T02:52:52;97169.00;;;5.40
8227;BMP180;4154;48.810;9.012;2023-03-29T02:55:22;97173.00;;;5.50
8227;BMP180;4154;48.810;9.012;2023-03-29T02:57:50;97170.00;;;5.50
8227;BMP180;4154;48.810;9.012;2023-03-29T03:00:16;97170.00;;;5.40
8227;BMP180;4154;48.810;9.012;2023-03-29T03:02:44;97169.00;;;5.50
8227;BMP180;4154;48.810;9.012;2023-03-29T03:05:10;97161.00;;;5.40
8227;BMP180;4154;48.810;9.012;2023-03-29T03:07:36;97172.00;;;5.30
8227;BMP180;4154;48.810;9.012;2023-03-29T03:10:07;97174.00;;;5.20
8227;BMP180;4154;48.810;9.012;2023-03-29T03:12:34;97169.00;;;5.30
8227;BMP180;4154;48.810;9.012;2023-03-29T03:15:06;97170.00;;;5.20
8227;BMP180;4154;48.810;9.012;2023-03-29T03:17:32;97177.00;;;5.20
8227;BMP180;4154;48.810;9.012;2023-03-29T03:19:58;97187.00;;;5.20
8227;BMP180;4154;48.810;9.012;2023-03-29T03:22:24;97178.00;;;5.20
8227;BMP180;4154;48.810;9.012;2023-03-29T03:24:50;97178.00;;;5.10
8227;BMP180;4154;48.810;9.012;2023-03-29T03:27:16;97180.00;;;5.20
8227;BMP180;4154;48.810;9.012;2023-03-29T03:29:42;97171.00;;;5.20
8227;BMP180;4154;48.810;9.012;2023-03-29T03:32:08;97170.00;;;5.20
8227;BMP180;4154;48.810;9.012;2023-03-29T03:34:34;97175.00;;;5.20
8227;BMP180;4154;48.810;9.012;2023-03-29T03:37:00;97170.00;;;5.20
8227;BMP180;4154;48.810;9.012;2023-03-29T03:39:26;97175.00;;;5.30
8227;BMP180;4154;48.810;9.012;2023-03-29T03:41:52;97166.00;;;5.30
8227;BMP180;4154;48.810;9.012;2023-03-29T03:44:18;97173.00;;;5.30
8227;BMP180;4154;48.810;9.012;2023-03-29T03:46:44;97167.00;;;5.30
8227;BMP180;4154;48.810;9.012;2023-03-29T03:49:09;97166.00;;;5.30
8227;BMP180;4154;48.810;9.012;2023-03-29T03:51:35;97170.00;;;5.40
8227;BMP180;4154;48.810;9.012;2023-03-29T03:54:01;97179.00;;;5.40
8227;BMP180;4154;48.810;9.012;2023-03-29T03:56:26;97178.00;;;5.40
8227;BMP180;4154;48.810;9.012;2023-03-29T03:58:54;97174.00;;;5.50
8227;BMP180;4154;48.810;9.012;2023-03-29T04:01:21;97175.00;;;5.50
8227;BMP180;4154;48.810;9.012;2023-03-29T04:03:47;97175.00;;;5.60
8227;BMP180;4154;48.810;9.012;2023-03-29T04:06:13;97169.00;;;5.60
8227;BMP180;4154;48.810;9.012;2023-03-29T04:08:39;97180.00;;;5.60
8227;BMP180;4154;48.810;9.012;2023-03-29T04:11:06;97175.00;;;5.70
8227;BMP180;4154;48.810;9.012;2023-03-29T04:13:32;97186.00;;;5.70
8227;BMP180;4154;48.810;9.012;2023-03-29T04:15:57;97174.00;;;5.70
8227;BMP180;4154;48.810;9.012;2023-03-29T04:18:23;97173.00;;;5.80
8227;BMP180;4154;48.810;9.012;2023-03-29T04:20:49;97172.00;;;5.80
8227;BMP180;4154;48.810;9.012;2023-03-29T04:23:15;97180.00;;;5.90
8227;BMP180;4154;48.810;9.012;2023-03-29T04:25:41;97181.00;;;5.90
8227;BMP180;4154;48.810;9.012;2023-03-29T04:28:08;97175.00;;;5.90
8227;BMP180;4154;48.810;9.012;2023-03-29T04:30:35;97176.00;;;5.90
8227;BMP180;4154;48.810;9.012;2023-03-29T04:33:00;97182.00;;;5.90
8227;BMP180;4154;48.810;9.012;2023-03-29T04:35:26;97181.00;;;6.00
8227;BMP180;4154;48.810;9.012;2023-03-29T04:37:52;97178.00;;;6.00
8227;BMP180;4154;48.810;9.012;2023-03-29T04:40:19;97180.00;;;6.00
8227;BMP180;4154;48.810;9.012;2023-03-29T04:42:46;97187.00;;;6.10
8227;BMP180;4154;48.810;9.012;2023-03-29T04:45:14;97180.00;;;6.10
8227;BMP180;4154;48.810;9.012;2023-03-29T04:47:43;97172.00;;;6.20
8227;BMP180;4154;48.810;9.012;2023-03-29T04:50:10;97169.00;;;6.30
8227;BMP180;4154;48.810;9.012;2023-03-29T04:52:36;97167.00;;;6.40
8227;BMP180;4154;48.810;9.012;2023-03-29T04:55:04;97176.00;;;6.40
8227;BMP180;4154;48.810;9.012;2023-03-29T04:57:31;97180.00;;;6.40
8227;BMP180;4154;48.810;9.012;2023-03-29T04:59:57;97170.00;;;6.50
8227;BMP180;4154;48.810;9.012;2023-03-29T05:02:23;97184.00;;;6.50
8227;BMP180;4154;48.810;9.012;2023-03-29T05:04:49;97178.00;;;6.50
8227;BMP180;4154;48.810;9.012;2023-03-29T05:07:15;97179.00;;;6.60
8227;BMP180;4154;48.810;9.012;2023-03-29T05:09:42;97182.00;;;6.60
8227;BMP180;4154;48.810;9.012;2023-03-29T05:12:08;97187.00;;;6.60
8227;BMP180;4154;48.810;9.012;2023-03-29T05:14:34;97183.00;;;6.60
8227;BMP180;4154;48.810;9.012;2023-03-29T05:17:00;97191.00;;;6.60
8227;BMP180;4154;48.810;9.012;2023-03-29T05:19:26;97192.00;;;6.60
8227;BMP180;4154;48.810;9.012;2023-03-29T05:21:53;97195.00;;;6.60
8227;BMP180;4154;48.810;9.012;2023-03-29T05:24:19;97192.00;;;6.60
8227;BMP180;4154;48.810;9.012;2023-03-29T05:26:45;97194.00;;;6.70
8227;BMP180;4154;48.810;9.012;2023-03-29T05:29:16;97192.00;;;6.70
8227;BMP180;4154;48.810;9.012;2023-03-29T05:31:42;97186.00;;;6.70
8227;BMP180;4154;48.810;9.012;2023-03-29T05:34:07;97189.00;;;6.70
8227;BMP180;4154;48.810;9.012;2023-03-29T05:36:33;97188.00;;;6.70
8227;BMP180;4154;48.810;9.012;2023-03-29T05:38:59;97190.00;;;6.80
8227;BMP180;4154;48.810;9.012;2023-03-29T05:41:26;97194.00;;;6.70
8227;BMP180;4154;48.810;9.012;2023-03-29T05:43:51;97187.00;;;6.80
8227;BMP180;4154;48.810;9.012;2023-03-29T05:46:17;97186.00;;;6.80
8227;BMP180;4154;48.810;9.012;2023-03-29T05:48:43;97190.00;;;6.80
8227;BMP180;4154;48.810;9.012;2023-03-29T05:51:09;97181.00;;;6.80
8227;BMP180;4154;48.810;9.012;2023-03-29T05:53:35;97190.00;;;6.90
8227;BMP180;4154;48.810;9.012;2023-03-29T05:56:01;97190.00;;;6.90
8227;BMP180;4154;48.810;9.012;2023-03-29T05:58:28;97189.00;;;6.90
8227;BMP180;4154;48.810;9.012;2023-03-29T06:00:55;97186.00;;;6.90
8227;BMP180;4154;48.810;9.012;2023-03-29T06:03:23;97201.00;;;7.00
8227;BMP180;4154;48.810;9.012;2023-03-29T06:05:58;97201.00;;;7.00
8227;BMP180;4154;48.810;9.012;2023-03-29T06:08:25;97200.00;;;7.00
8227;BMP180;4154;48.810;9.012;2023-03-29T06:13:23;97200.00;;;7.00
8227;BMP180;4154;48.810;9.012;2023-03-29T06:15:49;97211.00;;;7.00
8227;BMP180;4154;48.810;9.012;2023-03-29T06:18:14;97203.00;;;7.00
8227;BMP180;4154;48.810;9.012;2023-03-29T06:20:40;97200.00;;;7.00
8227;BMP180;4154;48.810;9.012;2023-03-29T06:23:08;97213.00;;;7.10
8227;BMP180;4154;48.810;9.012;2023-03-29T06:25:34;97210.00;;;7.10
8227;BMP180;4154;48.810;9.012;2023-03-29T06:28:00;97202.00;;;7.20
8227;BMP180;4154;48.810;9.012;2023-03-29T06:30:25;97205.00;;;7.30
8227;BMP180;4154;48.810;9.012;2023-03-29T06:32:51;97213.00;;;7.40
8227;BMP180;4154;48.810;9.012;2023-03-29T06:35:19;97211.00;;;7.40
8227;BMP180;4154;48.810;9.012;2023-03-29T06:37:45;97212.00;;;7.50
8227;BMP180;4154;48.810;9.012;2023-03-29T06:40:18;97208.00;;;7.60
8227;BMP180;4154;48.810;9.012;2023-03-29T06:42:46;97214.00;;;7.60
8227;BMP180;4154;48.810;9.012;2023-03-29T06:45:13;97208.00;;;7.60
8227;BMP180;4154;48.810;9.012;2023-03-29T06:47:39;97217.00;;;7.70
8227;BMP180;4154;48.810;9.012;2023-03-29T06:50:06;97219.00;;;7.80
8227;BMP180;4154;48.810;9.012;2023-03-29T06:52:32;97219.00;;;7.70
8227;BMP180;4154;48.810;9.012;2023-03-29T06:54:58;97226.00;;;7.70
8227;BMP180;4154;48.810;9.012;2023-03-29T06:57:26;97233.00;;;7.70
8227;BMP180;4154;48.810;9.012;2023-03-29T06:59:53;97229.00;;;7.80
8227;BMP180;4154;48.810;9.012;2023-03-29T07:02:19;97233.00;;;7.80
8227;BMP180;4154;48.810;9.012;2023-03-29T07:04:46;97236.00;;;7.90
8227;BMP180;4154;48.810;9.012;2023-03-29T07:07:12;97235.00;;;8.00
8227;BMP180;4154;48.810;9.012;2023-03-29T07:09:45;97239.00;;;8.10
8227;BMP180;4154;48.810;9.012;2023-03-29T07:12:20;97235.00;;;8.10
8227;BMP180;4154;48.810;9.012;2023-03-29T07:14:46;97239.00;;;8.10
8227;BMP180;4154;48.810;9.012;2023-03-29T07:17:13;97242.00;;;8.10
8227;BMP180;4154;48.810;9.012;2023-03-29T07:19:39;97240.00;;;8.20
8227;BMP180;4154;48.810;9.012;2023-03-29T07:22:04;97236.00;;;8.20
8227;BMP180;4154;48.810;9.012;2023-03-29T07:24:30;97244.00;;;8.20
8227;BMP180;4154;48.810;9.012;2023-03-29T07:26:56;97253.00;;;8.30
8227;BMP180;4154;48.810;9.012;2023-03-29T07:29:23;97252.00;;;8.30
8227;BMP180;4154;48.810;9.012;2023-03-29T07:31:48;97244.00;;;8.40
8227;BMP180;4154;48.810;9.012;2023-03-29T07:34:15;97265.00;;;8.50
8227;BMP180;4154;48.810;9.012;2023-03-29T07:36:42;97264.00;;;8.50
8227;BMP180;4154;48.810;9.012;2023-03-29T07:39:08;97257.00;;;8.60
8227;BMP180;4154;48.810;9.012;2023-03-29T07:41:34;97270.00;;;8.70
8227;BMP180;4154;48.810;9.012;2023-03-29T07:44:00;97265.00;;;8.80
8227;BMP180;4154;48.810;9.012;2023-03-29T07:46:35;97279.00;;;8.80
8227;BMP180;4154;48.810;9.012;2023-03-29T07:49:02;97276.00;;;8.90
8227;BMP180;4154;48.810;9.012;2023-03-29T07:51:28;97280.00;;;8.90
8227;BMP180;4154;48.810;9.012;2023-03-29T07:53:54;97277.00;;;9.00
8227;BMP180;4154;48.810;9.012;2023-03-29T07:56:19;97270.00;;;9.00
8227;BMP180;4154;48.810;9.012;2023-03-29T07:58:45;97281.00;;;9.00
8227;BMP180;4154;48.810;9.012;2023-03-29T08:01:12;97270.00;;;9.10
8227;BMP180;4154;48.810;9.012;2023-03-29T08:03:40;97264.00;;;9.20
8227;BMP180;4154;48.810;9.012;2023-03-29T08:06:07;97268.00;;;9.30
8227;BMP180;4154;48.810;9.012;2023-03-29T08:08:33;97260.00;;;9.40
8227;BMP180;4154;48.810;9.012;2023-03-29T08:10:59;97257.00;;;9.50
8227;BMP180;4154;48.810;9.012;2023-03-29T08:13:25;97258.00;;;9.60
8227;BMP180;4154;48.810;9.012;2023-03-29T08:15:51;97262.00;;;9.70
8227;BMP180;4154;48.810;9.012;2023-03-29T08:18:17;97264.00;;;9.80
8227;BMP180;4154;48.810;9.012;2023-03-29T08:20:42;97260.00;;;9.90
8227;BMP180;4154;48.810;9.012;2023-03-29T08:23:08;97267.00;;;9.90
8227;BMP180;4154;48.810;9.012;2023-03-29T08:25:34;97267.00;;;10.00
8227;BMP180;4154;48.810;9.012;2023-03-29T08:28:01;97265.00;;;10.10
8227;BMP180;4154;48.810;9.012;2023-03-29T08:30:26;97258.00;;;10.10
8227;BMP180;4154;48.810;9.012;2023-03-29T08:32:53;97247.00;;;10.10
8227;BMP180;4154;48.810;9.012;2023-03-29T08:35:19;97248.00;;;10.20
8227;BMP180;4154;48.810;9.012;2023-03-29T08:37:44;97255.00;;;10.20
8227;BMP180;4154;48.810;9.012;2023-03-29T08:40:21;97259.00;;;10.20
8227;BMP180;4154;48.810;9.012;2023-03-29T08:48:29;97265.00;;;10.40
8227;BMP180;4154;48.810;9.012;2023-03-29T08:51:11;97259.00;;;10.40
8227;BMP180;4154;48.810;9.012;2023-03-29T08:53:45;97257.00;;;10.40
8227;BMP180;4154;48.810;9.012;2023-03-29T08:56:18;97264.00;;;10.50
8227;BMP180;4154;48.810;9.012;2023-03-29T08:58:46;97245.00;;;10.60
8227;BMP180;4154;48.810;9.012;2023-03-29T09:01:12;97249.00;;;10.70
8227;BMP180;4154;48.810;9.012;2023-03-29T09:04:19;97240.00;;;10.80
8227;BMP180;4154;48.810;9.012;2023-03-29T09:06:48;97249.00;;;10.90
8227;BMP180;4154;48.810;9.012;2023-03-29T09:09:21;97254.00;;;10.90
8227;BMP180;4154;48.810;9.012;2023-03-29T09:14:43;97238.00;;;11.00
8227;BMP180;4154;48.810;9.012;2023-03-29T09:23:18;97255.00;;;11.20
8227;BMP180;4154;48.810;9.012;2023-03-29T09:28:35;97235.00;;;11.40
8227;BMP180;4154;48.810;9.012;2023-03-29T09:31:14;97241.00;;;11.40
8227;BMP180;4154;48.810;9.012;2023-03-29T09:34:12;97223.00;;;11.50
8227;BMP180;4154;48.810;9.012;2023-03-29T09:36:50;97217.00;;;11.60
8227;BMP180;4154;48.810;9.012;2023-03-29T09:39:17;97226.00;;;11.70
8227;BMP180;4154;48.810;9.012;2023-03-29T09:41:54;97209.00;;;11.80
8227;BMP180;4154;48.810;9.012;2023-03-29T09:44:27;97226.00;;;11.80
8227;BMP180;4154;48.810;9.012;2023-03-29T09:47:01;97227.00;;;11.90
8227;BMP180;4154;48.810;9.012;2023-03-29T09:49:36;97218.00;;;12.00
8227;BMP180;4154;48.810;9.012;2023-03-29T09:52:14;97231.00;;;12.10
8227;BMP180;4154;48.810;9.012;2023-03-29T09:54:42;97231.00;;;12.10
8227;BMP180;4154;48.810;9.012;2023-03-29T09:57:14;97237.00;;;12.10
8227;BMP180;4154;48.810;9.012;2023-03-29T09:59:41;97228.00;;;12.20
8227;BMP180;4154;48.810;9.012;2023-03-29T10:02:10;97232.00;;;12.20
8227;BMP180;4154;48.810;9.012;2023-03-29T10:04:38;97221.00;;;12.30
8227;BMP180;4154;48.810;9.012;2023-03-29T10:07:05;97232.00;;;12.40
8227;BMP180;4154;48.810;9.012;2023-03-29T10:09:33;97217.00;;;12.40
8227;BMP180;4154;48.810;9.012;2023-03-29T10:12:04;97209.00;;;12.50
8227;BMP180;4154;48.810;9.012;2023-03-29T10:14:42;97218.00;;;12.50
8227;BMP180;4154;48.810;9.012;2023-03-29T10:17:21;97219.00;;;12.50
8227;BMP180;4154;48.810;9.012;2023-03-29T10:20:15;97215.00;;;12.50
8227;BMP180;4154;48.810;9.012;2023-03-29T10:22:55;97224.00;;;12.70
8227;BMP180;4154;48.810;9.012;2023-03-29T10:25:28;97225.00;;;12.70
8227;BMP180;4154;48.810;9.012;2023-03-29T10:28:04;97227.00;;;12.90
8227;BMP180;4154;48.810;9.012;2023-03-29T10:30:34;97227.00;;;13.10
8227;BMP180;4154;48.810;9.012;2023-03-29T10:33:02;97228.00;;;13.40
8227;BMP180;4154;48.810;9.012;2023-03-29T10:35:37;97218.00;;;13.50
8227;BMP180;4154;48.810;9.012;2023-03-29T10:38:10;97212.00;;;13.60
8227;BMP180;4154;48.810;9.012;2023-03-29T10:41:19;97206.00;;;13.80
8227;BMP180;4154;48.810;9.012;2023-03-29T10:43:48;97189.00;;;13.80
8227;BMP180;4154;48.810;9.012;2023-03-29T10:46:29;97194.00;;;13.80
8227;BMP180;4154;48.810;9.012;2023-03-29T10:49:01;97200.00;;;13.80
8227;BMP180;4154;48.810;9.012;2023-03-29T10:51:31;97205.00;;;13.90
8227;BMP180;4154;48.810;9.012;2023-03-29T10:54:01;97193.00;;;14.00
8227;BMP180;4154;48.810;9.012;2023-03-29T10:56:42;97196.00;;;14.10
8227;BMP180;4154;48.810;9.012;2023-03-29T11:07:34;97178.00;;;14.20
8227;BMP180;4154;48.810;9.012;2023-03-29T11:16:12;97169.00;;;14.60
8227;BMP180;4154;48.810;9.012;2023-03-29T11:27:47;97175.00;;;15.00
8227;BMP180;4154;48.810;9.012;2023-03-29T11:30:47;97178.00;;;15.00
8227;BMP180;4154;48.810;9.012;2023-03-29T11:33:56;97165.00;;;15.00
8227;BMP180;4154;48.810;9.012;2023-03-29T11:42:13;97174.00;;;15.00
8227;BMP180;4154;48.810;9.012;2023-03-29T11:44:43;97181.00;;;15.00
8227;BMP180;4154;48.810;9.012;2023-03-29T11:47:20;97173.00;;;15.00
8227;BMP180;4154;48.810;9.012;2023-03-29T11:49:53;97166.00;;;15.00
8227;BMP180;4154;48.810;9.012;2023-03-29T11:52:43;97160.00;;;15.20
8227;BMP180;4154;48.810;9.012;2023-03-29T11:55:17;97164.00;;;15.40
8227;BMP180;4154;48.810;9.012;2023-03-29T11:57:55;97149.00;;;15.60
8227;BMP180;4154;48.810;9.012;2023-03-29T12:00:25;97151.00;;;15.60
8227;BMP180;4154;48.810;9.012;2023-03-29T12:06:00;97151.00;;;15.70
8227;BMP180;4154;48.810;9.012;2023-03-29T12:08:39;97173.00;;;15.80
8227;BMP180;4154;48.810;9.012;2023-03-29T12:11:35;97156.00;;;15.80
8227;BMP180;4154;48.810;9.012;2023-03-29T12:14:26;97157.00;;;15.80
8227;BMP180;4154;48.810;9.012;2023-03-29T12:17:01;97166.00;;;15.70
8227;BMP180;4154;48.810;9.012;2023-03-29T12:19:36;97169.00;;;15.80
8227;BMP180;4154;48.810;9.012;2023-03-29T12:22:07;97167.00;;;15.80
8227;BMP180;4154;48.810;9.012;2023-03-29T12:24:38;97165.00;;;15.80
8227;BMP180;4154;48.810;9.012;2023-03-29T12:27:27;97160.00;;;15.70
8227;BMP180;4154;48.810;9.012;2023-03-29T12:30:54;97171.00;;;15.70
8227;BMP180;4154;48.810;9.012;2023-03-29T12:34:38;97169.00;;;15.60
8227;BMP180;4154;48.810;9.012;2023-03-29T12:39:19;97177.00;;;15.20
8227;BMP180;4154;48.810;9.012;2023-03-29T12:41:46;97186.00;;;15.20
8227;BMP180;4154;48.810;9.012;2023-03-29T12:44:21;97172.00;;;15.20
8227;BMP180;4154;48.810;9.012;2023-03-29T12:46:53;97167.00;;;15.20
8227;BMP180;4154;48.810;9.012;2023-03-29T12:49:34;97179.00;;;15.30
8227;BMP180;4154;48.810;9.012;2023-03-29T12:52:23;97182.00;;;15.40
8227;BMP180;4154;48.810;9.012;2023-03-29T12:54:54;97172.00;;;15.30
8227;BMP180;4154;48.810;9.012;2023-03-29T12:57:44;97173.00;;;15.30
8227;BMP180;4154;48.810;9.012;2023-03-29T13:00:30;97168.00;;;15.20
8227;BMP180;4154;48.810;9.012;2023-03-29T13:05:44;97171.00;;;15.20
8227;BMP180;4154;48.810;9.012;2023-03-29T13:08:38;97183.00;;;15.20
8227;BMP180;4154;48.810;9.012;2023-03-29T13:11:07;97183.00;;;15.20
8227;BMP180;4154;48.810;9.012;2023-03-29T13:13:38;97189.00;;;15.20
8227;BMP180;4154;48.810;9.012;2023-03-29T13:16:30;97192.00;;;15.20
8227;BMP180;4154;48.810;9.012;2023-03-29T13:28:50;97183.00;;;15.00
8227;BMP180;4154;48.810;9.012;2023-03-29T13:31:48;97186.00;;;14.90
8227;BMP180;4154;48.810;9.012;2023-03-29T13:34:58;97185.00;;;15.00
8227;BMP180;4154;48.810;9.012;2023-03-29T13:38:05;97195.00;;;14.90
8227;BMP180;4154;48.810;9.012;2023-03-29T13:41:21;97188.00;;;14.70
8227;BMP180;4154;48.810;9.012;2023-03-29T13:43:52;97194.00;;;14.70
8227;BMP180;4154;48.810;9.012;2023-03-29T13:46:37;97201.00;;;14.50
8227;BMP180;4154;48.810;9.012;2023-03-29T13:49:16;97196.00;;;14.60
8227;BMP180;4154;48.810;9.012;2023-03-29T13:52:25;97195.00;;;14.30
8227;BMP180;4154;48.810;9.012;2023-03-29T13:55:03;97197.00;;;14.20
8227;BMP180;4154;48.810;9.012;2023-03-29T13:58:03;97188.00;;;14.20
8227;BMP180;4154;48.810;9.012;2023-03-29T14:00:38;97185.00;;;14.00
8227;BMP180;4154;48.810;9.012;2023-03-29T14:03:13;97185.00;;;14.00
8227;BMP180;4154;48.810;9.012;2023-03-29T14:05:47;97186.00;;;13.90
8227;BMP180;4154;48.810;9.012;2023-03-29T14:08:29;97186.00;;;13.90
8227;BMP180;4154;48.810;9.012;2023-03-29T14:10:59;97183.00;;;13.90
8227;BMP180;4154;48.810;9.012;2023-03-29T14:13:27;97180.00;;;13.90
8227;BMP180;4154;48.810;9.012;2023-03-29T14:15:59;97182.00;;;13.80
8227;BMP180;4154;48.810;9.012;2023-03-29T14:18:32;97168.00;;;13.80
8227;BMP180;4154;48.810;9.012;2023-03-29T14:21:00;97164.00;;;13.80
8227;BMP180;4154;48.810;9.012;2023-03-29T14:23:30;97155.00;;;13.80
8227;BMP180;4154;48.810;9.012;2023-03-29T14:26:14;97156.00;;;13.70
8227;BMP180;4154;48.810;9.012;2023-03-29T14:28:52;97164.00;;;13.80
8227;BMP180;4154;48.810;9.012;2023-03-29T14:31:25;97153.00;;;13.90
8227;BMP180;4154;48.810;9.012;2023-03-29T14:33:59;97154.00;;;14.00
8227;BMP180;4154;48.810;9.012;2023-03-29T14:36:29;97145.00;;;14.10
8227;BMP180;4154;48.810;9.012;2023-03-29T14:39:02;97147.00;;;14.00
8227;BMP180;4154;48.810;9.012;2023-03-29T14:41:34;97143.00;;;14.00
8227;BMP180;4154;48.810;9.012;2023-03-29T14:44:03;97142.00;;;14.00
8227;BMP180;4154;48.810;9.012;2023-03-29T14:46:30;97145.00;;;14.20
8227;BMP180;4154;48.810;9.012;2023-03-29T14:48:57;97135.00;;;14.20
8227;BMP180;4154;48.810;9.012;2023-03-29T14:51:23;97140.00;;;14.10
8227;BMP180;4154;48.810;9.012;2023-03-29T14:53:58;97129.00;;;14.10
8227;BMP180;4154;48.810;9.012;2023-03-29T14:56:25;97130.00;;;14.10
8227;BMP180;4154;48.810;9.012;2023-03-29T14:58:55;97131.00;;;14.20
8227;BMP180;4154;48.810;9.012;2023-03-29T15:01:24;97127.00;;;14.20
8227;BMP180;4154;48.810;9.012;2023-03-29T15:04:04;97125.00;;;14.20
8227;BMP180;4154;48.810;9.012;2023-03-29T15:06:31;97112.00;;;14.10
8227;BMP180;4154;48.810;9.012;2023-03-29T15:09:03;97108.00;;;14.00
8227;BMP180;4154;48.810;9.012;2023-03-29T15:11:29;97099.00;;;14.00
8227;BMP180;4154;48.810;9.012;2023-03-29T15:14:14;97098.00;;;14.10
8227;BMP180;4154;48.810;9.012;2023-03-29T15:16:44;97101.00;;;14.20
8227;BMP180;4154;48.810;9.012;2023-03-29T15:19:21;97100.00;;;14.30
8227;BMP180;4154;48.810;9.012;2023-03-29T15:21:50;97096.00;;;14.40
8227;BMP180;4154;48.810;9.012;2023-03-29T15:24:31;97077.00;;;14.40
8227;BMP180;4154;48.810;9.012;2023-03-29T15:27:19;97081.00;;;14.50
8227;BMP180;4154;48.810;9.012;2023-03-29T15:29:45;97077.00;;;14.40
8227;BMP180;4154;48.810;9.012;2023-03-29T15:32:24;97079.00;;;14.30
8227;BMP180;4154;48.810;9.012;2023-03-29T15:35:19;97071.00;;;14.30
8227;BMP180;4154;48.810;9.012;2023-03-29T15:37:46;97077.00;;;14.30
8227;BMP180;4154;48.810;9.012;2023-03-29T15:40:24;97066.00;;;14.30
8227;BMP180;4154;48.810;9.012;2023-03-29T15:42:52;97054.00;;;14.30
8227;BMP180;4154;48.810;9.012;2023-03-29T15:45:21;97054.00;;;14.40
8227;BMP180;4154;48.810;9.012;2023-03-29T15:47:47;97054.00;;;14.40
8227;BMP180;4154;48.810;9.012;2023-03-29T15:50:13;97043.00;;;14.40
8227;BMP180;4154;48.810;9.012;2023-03-29T15:52:40;97048.00;;;14.40
8227;BMP180;4154;48.810;9.012;2023-03-29T15:55:07;97056.00;;;14.40
8227;BMP180;4154;48.810;9.012;2023-03-29T15:57:34;97055.00;;;14.30
8227;BMP180;4154;48.810;9.012;2023-03-29T16:00:02;97060.00;;;14.20
8227;BMP180;4154;48.810;9.012;2023-03-29T16:02:30;97056.00;;;14.30
8227;BMP180;4154;48.810;9.012;2023-03-29T16:04:56;97071.00;;;14.20
8227;BMP180;4154;48.810;9.012;2023-03-29T16:07:22;97057.00;;;14.10
8227;BMP180;4154;48.810;9.012;2023-03-29T16:09:47;97059.00;;;14.10
8227;BMP180;4154;48.810;9.012;2023-03-29T16:12:13;97052.00;;;14.10
8227;BMP180;4154;48.810;9.012;2023-03-29T16:14:41;97057.00;;;14.20
8227;BMP180;4154;48.810;9.012;2023-03-29T16:17:07;97063.00;;;14.20
8227;BMP180;4154;48.810;9.012;2023-03-29T16:19:34;97047.00;;;14.20
8227;BMP180;4154;48.810;9.012;2023-03-29T16:22:02;97054.00;;;14.20
8227;BMP180;4154;48.810;9.012;2023-03-29T16:24:32;97055.00;;;14.10
8227;BMP180;4154;48.810;9.012;2023-03-29T16:26:59;97056.00;;;14.20